CheckWX is a tool to help pilots better visualize weather data.  It is not intended as a substitute for an official pre-flight weather briefing.

02:11:42 UTC

EGNM METAR
Leeds Bradford Airport
Leeds, United Kingdom
Current

22 mins ago

EGNM 180150Z 18005KT 140V220 9999 FEW025 BKN045 08/04 Q1010
Observed
Feb-18 @ 01:50 UTC
Wind
  • 180° at 5 KTS
Visibility
10,000+ meters
Flight Rules
VFR
Cloud Levels
  • Few at 2,500' AGL
  • Broken at 4,500' AGL
Temperature
C / 46°F
Dewpoint
C / 39°F
Humidity
76%
Altimeter
29.82" Hg
Pressure
1009.92 hPa
Previous

52 mins ago

EGNM 180120Z 19006KT 160V230 9999 BKN045 07/04 Q1010
Observed
Feb-18 @ 01:20 UTC
Wind
  • 190° at 6 KTS
Visibility
10,000+ meters
Flight Rules
VFR
Cloud Levels
  • Broken at 4,500' AGL
Temperature
C / 45°F
Dewpoint
C / 39°F
Humidity
81%
Altimeter
29.82" Hg
Pressure
1009.92 hPa
Previous

1 hour ago

EGNM 180050Z 19007G19KT 140V240 9999 FEW025 BKN045 08/04 Q1010
Observed
Feb-18 @ 00:50 UTC
Wind
  • 190° at 7 KTS
  • Gusting to 19 KTS
Visibility
10,000+ meters
Flight Rules
VFR
Cloud Levels
  • Few at 2,500' AGL
  • Broken at 4,500' AGL
Temperature
C / 46°F
Dewpoint
C / 39°F
Humidity
76%
Altimeter
29.82" Hg
Pressure
1009.92 hPa